This is the latest recevied weather packets stored in our database for station/object E23XBQ-1. If no packets are shown the sender has not sent any weather packets the latest 1 day(s).
| Time | Temp. | Humidity | Pressure | Rain* | Wind** | Luminosity | Snow |
|---|---|---|---|---|---|---|---|
| 1778031050 | 30° C | 73% | 973 hPa | - | 0 m/s | 0 W/m² | - |
| 1778030425 | 29.44° C | 77% | 973 hPa | - | 0 m/s | 0 W/m² | - |
| 1778029801 | 28.89° C | 79% | 973 hPa | - | 0 m/s | 0 W/m² | - |
| 1778029176 | 28.89° C | 80% | 973 hPa | - | 0 m/s | 0 W/m² | - |
| 1778028551 | 27.78° C | 86% | 973 hPa | - | 0 m/s | 0 W/m² | - |
| 1778027926 | 28.33° C | 84% | 973 hPa | - | 0 m/s | 0 W/m² | - |
| 1778027295 | 27.78° C | 88% | 973 hPa | - | 0 m/s | 0 W/m² | - |
| 1778026670 | 28.89° C | 78% | 973 hPa | - | 0 m/s | 0 W/m² | - |
| 1778026046 | 27.78° C | 81% | 973 hPa | - | 0 m/s | 0 W/m² | - |
| 1778025421 | 27.78° C | 82% | 973 hPa | - | 0 m/s | 0 W/m² | - |
| 1778024797 | 26.67° C | 90% | 972 hPa | - | 0 m/s | 0 W/m² | - |
| 1778024173 | 27.22° C | 89% | 972 hPa | - | 0 m/s | 0 W/m² | - |
| 1778023548 | 26.11° C | 96% | 972 hPa | - | 0 m/s | 0 W/m² | - |
| 1778022923 | 25.56° C | 99% | 972 hPa | - | 0 m/s | 0 W/m² | - |
| 1778022298 | 25.56° C | 99% | 972 hPa | - | 0 m/s | 0 W/m² | - |
| 1778021673 | 25° C | 99% | 972 hPa | - | 0 m/s | 0 W/m² | - |
| 1778021037 | 25° C | 99% | 972 hPa | - | 0 m/s | 0 W/m² | - |
| 1778020412 | 25.56° C | 99% | 971 hPa | - | 0 m/s | 0 W/m² | - |
| 1778019788 | 25.56° C | 96% | 971 hPa | - | 0 m/s | 0 W/m² | - |
| 1778019163 | 25° C | 99% | 971 hPa | - | 0 m/s | 0 W/m² | - |
| 1778018538 | 25.56° C | 99% | 971 hPa | - | 0 m/s | 0 W/m² | - |
| 1778017914 | 25.56° C | 99% | 971 hPa | - | 0 m/s | 0 W/m² | - |
| 1778017290 | 25° C | 99% | 971 hPa | - | 0 m/s | 0 W/m² | - |
| 1778016665 | 25.56° C | 99% | 971 hPa | - | 0 m/s | 0 W/m² | - |
| 1778016041 | 25.56° C | 99% | 971 hPa | - | 0 m/s | 0 W/m² | - |
* Rain since midnight (hover to see other rain measurements)
** Current wind speed in m/s (hover to see current wind gust speed)